Time;durP1;ratioP1;P1;durP2;ratioP2;P2;SDS_P1;SDS_P2;PMS_P1;PMS_P2;Temp;Humidity;BMP_temperature;BMP_pressure;BME280_temperature;BME280_humidity;BME280_pressure;Samples;Min_cycle;Max_cycle;Signal;HPM_P1;HPM_P2
2021/07/22 00:00:40;;;;;;;9.80;8.80;;;25.40;56.90;;;;;;4928712;28;92316;-24
2021/07/22 00:03:06;;;;;;;11.02;8.60;;;25.40;56.90;;;;;;4925146;28;93191;-24
2021/07/22 00:05:31;;;;;;;10.23;8.77;;;25.40;57.00;;;;;;4908734;28;94668;-19
2021/07/22 00:08:01;;;;;;;10.07;8.25;;;25.30;56.90;;;;;;4909147;28;93735;-25
2021/07/22 00:10:27;;;;;;;8.98;8.07;;;25.30;57.00;;;;;;4909277;28;93262;-25
2021/07/22 00:12:53;;;;;;;9.98;8.98;;;25.30;56.90;;;;;;4908208;28;92189;-21
2021/07/22 00:15:18;;;;;;;11.70;9.20;;;25.30;57.00;;;;;;4908108;28;92660;-23
2021/07/22 00:17:44;;;;;;;9.23;8.23;;;25.30;57.00;;;;;;4908015;28;93887;-22
2021/07/22 00:20:10;;;;;;;9.63;8.52;;;25.30;57.00;;;;;;4908494;28;93337;-22
2021/07/22 00:22:39;;;;;;;9.57;8.20;;;25.40;57.10;;;;;;4910056;28;91433;-32
2021/07/22 00:25:08;;;;;;;9.30;8.40;;;25.30;57.10;;;;;;4926358;28;93556;-24
2021/07/22 00:27:34;;;;;;;9.15;8.25;;;25.30;57.10;;;;;;4928130;28;92909;-24
2021/07/22 00:30:00;;;;;;;9.10;8.07;;;25.30;57.10;;;;;;4942774;28;93328;-22
2021/07/22 00:32:29;;;;;;;9.55;8.52;;;25.30;57.10;;;;;;4925147;28;92907;-21
2021/07/22 00:34:54;;;;;;;9.55;8.52;;;25.30;57.20;;;;;;4931415;28;93239;-25
2021/07/22 00:37:21;;;;;;;10.00;8.90;;;25.30;57.20;;;;;;4931334;28;92940;-22
2021/07/22 00:39:47;;;;;;;9.02;8.13;;;25.30;57.20;;;;;;4931558;28;92738;-24
2021/07/22 00:42:12;;;;;;;9.07;8.18;;;25.30;57.20;;;;;;4931758;28;92328;-24
2021/07/22 00:44:38;;;;;;;9.20;8.13;;;25.30;57.20;;;;;;4931403;28;93570;-25
2021/07/22 00:47:04;;;;;;;10.15;9.15;;;25.30;57.30;;;;;;4931574;28;93731;-24
2021/07/22 00:49:29;;;;;;;10.85;8.55;;;25.30;57.30;;;;;;4930669;28;92614;-25
2021/07/22 00:51:55;;;;;;;9.15;8.25;;;25.30;57.30;;;;;;4931106;28;93216;-24
2021/07/22 00:54:21;;;;;;;9.63;8.60;;;25.20;57.30;;;;;;4929570;28;94174;-23
2021/07/22 00:56:47;;;;;;;10.70;8.90;;;25.20;57.30;;;;;;4924786;28;93297;-20
2021/07/22 00:59:13;;;;;;;9.55;8.55;;;25.30;57.40;;;;;;4912814;28;92681;-24
2021/07/22 01:01:38;;;;;;;9.60;8.57;;;25.30;57.40;;;;;;4911848;28;92214;-23
2021/07/22 01:04:04;;;;;;;10.93;8.68;;;25.20;57.40;;;;;;4912170;28;93144;-21
2021/07/22 01:06:29;;;;;;;9.95;8.95;;;25.20;57.40;;;;;;4911687;28;93242;-19
2021/07/22 01:08:55;;;;;;;10.05;8.77;;;25.20;57.40;;;;;;4912174;28;93158;-22
2021/07/22 01:11:21;;;;;;;8.90;8.00;;;25.30;57.50;;;;;;4911975;28;91839;-22
2021/07/22 01:13:46;;;;;;;11.40;8.80;;;25.20;57.50;;;;;;4911638;28;93202;-23
2021/07/22 01:16:12;;;;;;;9.68;8.32;;;25.20;57.50;;;;;;4911148;28;94017;-25
2021/07/22 01:18:38;;;;;;;9.65;8.65;;;25.20;57.50;;;;;;4910845;28;93541;-24
2021/07/22 01:21:08;;;;;;;9.20;8.25;;;25.20;57.50;;;;;;4916483;28;93324;-25
2021/07/22 01:23:34;;;;;;;9.25;8.35;;;25.20;57.50;;;;;;4930560;28;93220;-22
2021/07/22 01:25:59;;;;;;;9.15;8.15;;;25.20;57.50;;;;;;4918783;28;93343;-21
2021/07/22 01:28:25;;;;;;;9.80;8.63;;;25.20;57.60;;;;;;4911527;28;92486;-22
2021/07/22 01:30:51;;;;;;;9.20;8.30;;;25.20;57.60;;;;;;4911381;28;92767;-23
2021/07/22 01:33:16;;;;;;;9.07;8.18;;;25.20;57.60;;;;;;4911145;28;92647;-24
2021/07/22 01:35:42;;;;;;;9.85;8.85;;;25.20;57.60;;;;;;4920529;28;92389;-24
2021/07/22 01:38:08;;;;;;;9.07;8.18;;;25.20;57.60;;;;;;4930954;28;92348;-24
2021/07/22 01:40:34;;;;;;;9.57;8.13;;;25.20;57.60;;;;;;4930180;28;92910;-21
2021/07/22 01:43:04;;;;;;;8.75;7.55;;;25.20;57.70;;;;;;4928555;28;94642;-24
2021/07/22 01:45:30;;;;;;;10.13;9.05;;;25.20;57.70;;;;;;4930521;28;95021;-23
2021/07/22 01:47:56;;;;;;;9.60;8.57;;;25.10;57.60;;;;;;4930488;28;92542;-22
2021/07/22 01:50:22;;;;;;;9.30;8.07;;;25.10;57.70;;;;;;4930606;28;93446;-24
2021/07/22 01:52:47;;;;;;;8.98;8.07;;;25.10;57.70;;;;;;4928619;28;93686;-25
2021/07/22 01:55:13;;;;;;;9.48;8.48;;;25.10;57.70;;;;;;4929272;28;92734;-24
2021/07/22 01:57:38;;;;;;;9.35;8.45;;;25.10;57.70;;;;;;4930306;28;92359;-23
2021/07/22 02:00:05;;;;;;;8.85;7.95;;;25.10;57.70;;;;;;4930188;28;92511;-26
2021/07/22 02:02:31;;;;;;;9.23;8.32;;;25.10;57.70;;;;;;4918815;28;94736;-20
2021/07/22 02:04:57;;;;;;;8.90;8.00;;;25.10;57.70;;;;;;4910218;28;92842;-24
2021/07/22 02:07:22;;;;;;;9.15;8.23;;;25.10;57.80;;;;;;4929623;28;93911;-19
2021/07/22 02:09:48;;;;;;;9.13;8.23;;;25.10;57.80;;;;;;4930295;28;93077;-24
2021/07/22 02:12:13;;;;;;;8.85;7.95;;;25.10;57.80;;;;;;4944447;28;95137;-20
2021/07/22 02:14:39;;;;;;;8.60;7.70;;;25.10;57.80;;;;;;4922961;28;92781;-25
2021/07/22 02:17:05;;;;;;;9.07;8.18;;;25.10;57.90;;;;;;4929399;28;92239;-23
2021/07/22 02:19:31;;;;;;;9.35;8.32;;;25.10;57.90;;;;;;4928834;28;93374;-20
2021/07/22 02:21:56;;;;;;;9.38;8.38;;;25.10;57.90;;;;;;4928951;28;93227;-20
2021/07/22 02:24:22;;;;;;;8.77;7.93;;;25.10;57.90;;;;;;4929631;28;94291;-19
2021/07/22 02:26:47;;;;;;;9.55;8.65;;;25.10;57.90;;;;;;4930111;28;93545;-24
2021/07/22 02:29:13;;;;;;;10.00;8.48;;;25.10;57.90;;;;;;4929683;28;92548;-22
2021/07/22 02:31:38;;;;;;;8.85;8.05;;;25.10;57.90;;;;;;4929249;28;94357;-24
2021/07/22 02:34:04;;;;;;;9.43;8.25;;;25.10;58.00;;;;;;4929504;28;92836;-24
2021/07/22 02:36:31;;;;;;;9.70;8.70;;;25.10;58.00;;;;;;4930501;28;93300;-21
2021/07/22 02:38:57;;;;;;;9.65;8.70;;;25.10;58.50;;;;;;4930341;28;92076;-25
2021/07/22 02:41:23;;;;;;;9.93;8.93;;;25.10;58.00;;;;;;4929493;28;93125;-24
2021/07/22 02:43:48;;;;;;;9.23;8.23;;;25.10;58.00;;;;;;4928514;28;93336;-23
2021/07/22 02:46:14;;;;;;;10.02;9.02;;;25.10;58.00;;;;;;4928895;28;93463;-22
2021/07/22 02:48:40;;;;;;;9.38;8.38;;;25.10;58.10;;;;;;4915096;28;91772;-23
2021/07/22 02:51:07;;;;;;;8.93;8.05;;;25.10;58.10;;;;;;4927496;28;96029;-25
2021/07/22 02:53:34;;;;;;;8.88;7.97;;;25.00;58.00;;;;;;4928397;28;94009;-24
2021/07/22 02:56:01;;;;;;;9.23;8.32;;;25.10;58.10;;;;;;4929095;28;93960;-19
2021/07/22 02:58:27;;;;;;;9.98;8.48;;;25.00;58.00;;;;;;4929527;28;92347;-23
2021/07/22 03:00:53;;;;;;;9.18;8.25;;;25.00;58.10;;;;;;4929307;28;93407;-22
2021/07/22 03:03:19;;;;;;;9.27;8.27;;;25.00;58.10;;;;;;4928264;28;92818;-20
2021/07/22 03:05:45;;;;;;;9.70;7.80;;;25.10;58.20;;;;;;4929250;28;92869;-22
2021/07/22 03:08:11;;;;;;;8.27;7.47;;;25.00;58.10;;;;;;4929399;28;92538;-21
2021/07/22 03:10:37;;;;;;;9.75;8.75;;;25.00;58.10;;;;;;4930044;28;93549;-23
2021/07/22 03:13:03;;;;;;;8.93;8.02;;;25.00;58.20;;;;;;4929588;28;92512;-24
2021/07/22 03:15:30;;;;;;;8.88;7.97;;;25.00;58.10;;;;;;4928999;28;92237;-23
2021/07/22 03:17:56;;;;;;;8.75;7.85;;;25.00;58.20;;;;;;4929318;28;92169;-22
2021/07/22 03:20:22;;;;;;;8.32;7.53;;;25.00;58.20;;;;;;4928682;28;94491;-24
2021/07/22 03:22:48;;;;;;;9.77;8.30;;;25.00;58.20;;;;;;4929121;28;93245;-24
2021/07/22 03:25:14;;;;;;;8.88;7.97;;;25.00;58.20;;;;;;4929224;28;92887;-24
2021/07/22 03:27:39;;;;;;;9.60;8.27;;;25.00;58.20;;;;;;4929247;28;93329;-21
2021/07/22 03:30:06;;;;;;;9.30;8.40;;;25.00;58.20;;;;;;4929282;28;93271;-24
2021/07/22 03:32:32;;;;;;;9.63;8.63;;;25.00;58.20;;;;;;4929002;28;96867;-23
2021/07/22 03:34:57;;;;;;;9.93;8.93;;;25.00;58.30;;;;;;4929420;28;92175;-25
2021/07/22 03:37:23;;;;;;;9.35;8.38;;;24.90;58.20;;;;;;4924630;28;92121;-24
2021/07/22 03:39:49;;;;;;;8.88;7.97;;;24.90;58.20;;;;;;4935899;28;94302;-20
2021/07/22 03:42:14;;;;;;;9.52;8.52;;;24.90;58.30;;;;;;4928587;28;92877;-24
2021/07/22 03:44:40;;;;;;;9.73;8.50;;;24.90;58.30;;;;;;4928012;28;93965;-24
2021/07/22 03:47:06;;;;;;;9.00;8.05;;;24.90;58.30;;;;;;4928140;28;92764;-19
2021/07/22 03:49:32;;;;;;;9.30;8.32;;;24.90;58.30;;;;;;4927186;28;92527;-20
2021/07/22 03:51:58;;;;;;;8.93;8.02;;;24.90;58.30;;;;;;4927866;28;92739;-27
2021/07/22 03:54:24;;;;;;;10.65;8.55;;;24.90;58.30;;;;;;4928549;28;93276;-24
2021/07/22 03:56:50;;;;;;;9.60;8.60;;;24.90;58.30;;;;;;4925888;28;92162;-24
2021/07/22 03:59:16;;;;;;;9.18;8.27;;;24.90;58.30;;;;;;4908541;28;93599;-24
2021/07/22 04:01:43;;;;;;;8.73;7.78;;;24.90;58.30;;;;;;4909081;28;93326;-24
2021/07/22 04:04:09;;;;;;;8.90;8.00;;;24.90;58.40;;;;;;4910594;28;92350;-23
2021/07/22 04:06:36;;;;;;;9.30;8.40;;;24.90;58.40;;;;;;4931636;28;92400;-22
2021/07/22 04:09:02;;;;;;;9.10;8.20;;;24.90;58.40;;;;;;4931607;28;93667;-23
2021/07/22 04:11:28;;;;;;;9.18;8.25;;;24.90;58.40;;;;;;4931737;28;93821;-25
2021/07/22 04:13:53;;;;;;;9.35;8.35;;;24.90;58.40;;;;;;4931393;28;92088;-24
2021/07/22 04:16:19;;;;;;;8.40;7.60;;;24.90;58.90;;;;;;4912842;28;93050;-24
2021/07/22 04:18:45;;;;;;;8.45;7.65;;;24.90;58.40;;;;;;4930484;28;93224;-24
2021/07/22 04:21:10;;;;;;;9.05;8.15;;;24.90;58.50;;;;;;4930456;28;93194;-24
2021/07/22 04:23:36;;;;;;;8.85;7.95;;;24.90;58.50;;;;;;4916078;28;92290;-25
2021/07/22 04:26:02;;;;;;;9.00;8.10;;;24.90;58.50;;;;;;4913496;28;92467;-24
2021/07/22 04:28:27;;;;;;;9.43;8.15;;;24.90;58.50;;;;;;4931339;28;93214;-25
2021/07/22 04:30:53;;;;;;;8.52;7.47;;;24.90;58.50;;;;;;4931416;28;92773;-24
2021/07/22 04:33:19;;;;;;;8.90;8.00;;;24.90;58.50;;;;;;4930801;28;93721;-24
2021/07/22 04:35:45;;;;;;;9.10;8.20;;;24.90;58.50;;;;;;4931073;28;92827;-23
2021/07/22 04:38:10;;;;;;;8.15;7.35;;;24.90;58.50;;;;;;4930921;28;93474;-25
2021/07/22 04:40:36;;;;;;;8.45;7.55;;;24.90;58.50;;;;;;4930730;28;93225;-24
2021/07/22 04:43:02;;;;;;;8.68;7.78;;;24.90;58.50;;;;;;4930908;28;92686;-21
2021/07/22 04:45:27;;;;;;;8.52;7.72;;;24.90;58.50;;;;;;4911368;28;92232;-26
2021/07/22 04:47:53;;;;;;;9.57;8.15;;;24.90;58.50;;;;;;4928039;28;93517;-24
2021/07/22 04:50:19;;;;;;;8.98;8.07;;;24.90;58.50;;;;;;4931521;28;93232;-24
2021/07/22 04:52:44;;;;;;;8.40;7.60;;;24.90;58.50;;;;;;4919138;28;92059;-24
2021/07/22 04:55:10;;;;;;;8.43;7.63;;;24.90;58.50;;;;;;4912775;28;92157;-25
2021/07/22 04:57:36;;;;;;;9.95;7.95;;;24.90;58.50;;;;;;4924340;28;95770;-24
2021/07/22 05:00:03;;;;;;;8.63;7.82;;;24.90;58.50;;;;;;4930878;28;95143;-24
2021/07/22 05:02:29;;;;;;;8.32;7.50;;;24.90;58.50;;;;;;4931073;28;92990;-24
2021/07/22 05:04:54;;;;;;;8.35;7.47;;;24.90;58.60;;;;;;4930755;28;92750;-20
2021/07/22 05:07:20;;;;;;;9.02;8.13;;;24.90;58.60;;;;;;4930957;28;92867;-24
2021/07/22 05:09:45;;;;;;;8.80;8.00;;;24.90;58.60;;;;;;4930648;28;93723;-22
2021/07/22 05:12:14;;;;;;;8.63;7.72;;;24.90;58.60;;;;;;4931836;28;92155;-24
2021/07/22 05:14:39;;;;;;;8.68;7.85;;;24.90;58.60;;;;;;4931498;28;92092;-25
2021/07/22 05:17:05;;;;;;;8.85;7.95;;;24.90;58.70;;;;;;4930547;28;92577;-24
2021/07/22 05:19:31;;;;;;;9.25;8.35;;;24.90;58.70;;;;;;4930669;28;93117;-23
2021/07/22 05:21:56;;;;;;;8.75;7.85;;;24.90;58.70;;;;;;4930540;28;94108;-23
2021/07/22 05:24:22;;;;;;;9.10;8.20;;;24.90;58.60;;;;;;4930398;28;92722;-22
2021/07/22 05:26:49;;;;;;;7.88;7.07;;;24.90;58.60;;;;;;4921350;28;95949;-23
2021/07/22 05:29:15;;;;;;;8.82;8.00;;;24.90;58.70;;;;;;4929898;28;93007;-24
2021/07/22 05:31:41;;;;;;;8.27;7.47;;;24.90;58.70;;;;;;4929852;28;93292;-22
2021/07/22 05:34:10;;;;;;;8.38;7.57;;;24.90;58.70;;;;;;4929796;28;92625;-25
2021/07/22 05:36:36;;;;;;;8.88;7.85;;;24.90;58.70;;;;;;4929642;28;94172;-24
2021/07/22 05:39:03;;;;;;;22.80;11.20;;;25.00;58.80;;;;;;4931021;28;92787;-20
2021/07/22 05:41:29;;;;;;;76.05;22.38;;;25.00;58.50;;;;;;4931019;28;93451;-24
2021/07/22 05:43:58;;;;;;;62.15;19.95;;;25.00;58.30;;;;;;4929774;28;92824;-22
2021/07/22 05:46:23;;;;;;;37.25;15.70;;;24.90;57.90;;;;;;4928987;28;95082;-22
2021/07/22 05:48:49;;;;;;;30.30;14.35;;;24.90;57.70;;;;;;4910101;28;94986;-23
2021/07/22 05:51:15;;;;;;;25.58;13.40;;;24.90;57.60;;;;;;4910938;28;92985;-25
2021/07/22 05:53:41;;;;;;;26.60;13.93;;;24.90;57.50;;;;;;4910550;28;93189;-19
2021/07/22 05:56:06;;;;;;;29.63;12.90;;;24.90;57.60;;;;;;4909758;28;94579;-25
2021/07/22 05:58:34;;;;;;;22.15;14.50;;;24.90;57.80;;;;;;4919273;28;93340;-19
2021/07/22 06:01:05;;;;;;;27.38;14.02;;;24.90;57.90;;;;;;4928757;28;92774;-25
2021/07/22 06:03:31;;;;;;;21.45;14.10;;;24.80;58.20;;;;;;4913526;28;92139;-22
2021/07/22 06:05:57;;;;;;;18.92;15.07;;;24.80;58.30;;;;;;4928457;28;93283;-25
2021/07/22 06:08:22;;;;;;;18.10;13.65;;;24.80;58.30;;;;;;4928178;28;94800;-25
2021/07/22 06:10:48;;;;;;;19.65;14.25;;;24.80;58.20;;;;;;4927592;28;93569;-26
2021/07/22 06:13:13;;;;;;;19.80;13.98;;;24.80;58.10;;;;;;4929404;28;93300;-22
2021/07/22 06:15:39;;;;;;;26.77;14.93;;;24.80;58.20;;;;;;4927156;28;92828;-26
2021/07/22 06:18:05;;;;;;;26.45;14.88;;;24.70;58.40;;;;;;4928984;28;92613;-21
2021/07/22 06:20:30;;;;;;;19.70;13.80;;;24.80;58.40;;;;;;4928422;28;92666;-25
2021/07/22 06:22:56;;;;;;;23.50;14.77;;;24.70;58.50;;;;;;4929304;28;93318;-21
2021/07/22 06:25:22;;;;;;;21.70;13.68;;;24.70;58.60;;;;;;4915643;28;93136;-29
2021/07/22 06:27:47;;;;;;;23.52;13.48;;;24.70;58.60;;;;;;4914722;28;95037;-25
2021/07/22 06:30:13;;;;;;;20.45;12.60;;;24.80;58.80;;;;;;4927128;28;93123;-24
2021/07/22 06:32:38;;;;;;;24.17;13.65;;;24.80;59.40;;;;;;4928113;28;92174;-22
2021/07/22 06:35:05;;;;;;;23.63;13.57;;;24.80;59.10;;;;;;4927622;28;93818;-21
2021/07/22 06:38:00;;;;;;;21.10;12.95;;;24.90;59.00;;;;;;4925457;28;92586;-23
2021/07/22 06:40:25;;;;;;;21.83;12.85;;;24.90;59.00;;;;;;4903966;28;92642;-25
2021/07/22 06:42:51;;;;;;;20.20;12.80;;;25.00;59.10;;;;;;4926371;28;92861;-24
2021/07/22 06:45:16;;;;;;;21.27;12.23;;;25.00;59.10;;;;;;4913010;28;93323;-24
2021/07/22 06:47:42;;;;;;;17.15;12.10;;;25.10;59.10;;;;;;4910584;28;93203;-24
2021/07/22 06:50:09;;;;;;;19.58;13.02;;;25.20;59.10;;;;;;4920469;28;92879;-23
2021/07/22 06:52:38;;;;;;;30.67;13.75;;;25.20;59.10;;;;;;4916598;28;92202;-25
2021/07/22 06:55:05;;;;;;;20.17;12.48;;;25.30;59.20;;;;;;4910465;28;94362;-22
2021/07/22 06:57:31;;;;;;;22.13;12.50;;;25.30;59.20;;;;;;4926678;28;93108;-23
2021/07/22 06:59:56;;;;;;;20.95;12.80;;;25.40;59.30;;;;;;4927139;28;94277;-24
2021/07/22 07:02:22;;;;;;;22.55;12.68;;;25.40;59.70;;;;;;4927410;28;92803;-25
2021/07/22 07:04:47;;;;;;;18.73;12.88;;;25.40;59.30;;;;;;4926519;28;92670;-25
2021/07/22 07:07:15;;;;;;;23.42;11.93;;;25.50;59.40;;;;;;4926896;28;93151;-20
2021/07/22 07:09:41;;;;;;;30.85;13.52;;;25.50;59.90;;;;;;4924495;28;92798;-23
2021/07/22 07:12:07;;;;;;;22.20;12.27;;;25.50;59.40;;;;;;4922355;28;93574;-22
2021/07/22 07:14:35;;;;;;;22.27;12.73;;;25.50;59.30;;;;;;4927465;28;93186;-22
2021/07/22 07:17:01;;;;;;;28.67;12.63;;;25.60;59.30;;;;;;4927648;28;93544;-25
2021/07/22 07:19:27;;;;;;;20.60;11.77;;;25.60;59.20;;;;;;4927980;28;92876;-25
2021/07/22 07:21:52;;;;;;;20.38;12.13;;;25.60;59.40;;;;;;4928262;28;92561;-21
2021/07/22 07:24:18;;;;;;;25.98;11.75;;;25.60;59.30;;;;;;4907900;28;95303;-21
2021/07/22 07:26:43;;;;;;;25.02;11.57;;;25.60;59.30;;;;;;4912645;28;93718;-25
2021/07/22 07:29:09;;;;;;;18.65;11.40;;;25.60;59.30;;;;;;4928493;28;92814;-24
2021/07/22 07:31:35;;;;;;;19.63;11.48;;;25.60;59.40;;;;;;4928426;28;93207;-24
2021/07/22 07:34:00;;;;;;;20.70;11.57;;;25.60;59.50;;;;;;4927342;28;93371;-23
2021/07/22 07:36:26;;;;;;;19.55;11.77;;;25.50;59.50;;;;;;4927410;28;93378;-23
2021/07/22 07:38:51;;;;;;;18.50;11.48;;;25.50;59.60;;;;;;4927865;28;92960;-22
2021/07/22 07:41:17;;;;;;;19.23;11.23;;;25.40;59.60;;;;;;4930679;28;92159;-21
2021/07/22 07:43:42;;;;;;;21.20;11.68;;;25.50;59.70;;;;;;4930795;28;93502;-23
2021/07/22 07:46:08;;;;;;;17.80;11.88;;;25.40;59.70;;;;;;4930058;28;93655;-21
2021/07/22 07:48:33;;;;;;;22.42;12.23;;;25.40;59.70;;;;;;4930735;28;93827;-19
2021/07/22 07:51:01;;;;;;;20.30;11.45;;;25.40;59.80;;;;;;4931254;28;93142;-22
2021/07/22 07:53:27;;;;;;;18.20;11.13;;;25.30;59.80;;;;;;4930653;28;93746;-22
2021/07/22 07:55:53;;;;;;;14.27;10.85;;;25.30;59.80;;;;;;4931144;28;92607;-20
2021/07/22 07:58:19;;;;;;;23.40;11.55;;;25.30;59.90;;;;;;4931478;28;93169;-25
2021/07/22 08:00:45;;;;;;;19.67;11.45;;;25.30;59.90;;;;;;4930821;28;93403;-23
2021/07/22 08:03:18;;;;;;;15.88;10.63;;;25.30;60.00;;;;;;4930937;28;94652;-24
2021/07/22 08:05:45;;;;;;;;;;;25.30;60.00;;;;;;4931738;28;93879;-24
2021/07/22 08:08:10;;;;;;;14.23;10.25;;;25.30;60.00;;;;;;4925420;28;93033;-22
2021/07/22 08:10:40;;;;;;;13.50;10.65;;;25.20;60.00;;;;;;4931321;28;92385;-24
2021/07/22 08:13:09;;;;;;;16.73;10.93;;;25.20;60.00;;;;;;4927034;28;94362;-18
2021/07/22 08:15:36;;;;;;;17.48;10.98;;;25.30;60.10;;;;;;4930926;28;93145;-24
2021/07/22 08:18:01;;;;;;;16.92;11.27;;;25.20;60.00;;;;;;4931419;28;92915;-21
2021/07/22 08:20:27;;;;;;;20.95;10.63;;;25.20;60.10;;;;;;4931430;28;92910;-23
2021/07/22 08:22:52;;;;;;;16.48;10.98;;;25.30;60.20;;;;;;4930983;28;93186;-24
2021/07/22 08:25:18;;;;;;;14.50;10.48;;;25.20;60.10;;;;;;4930347;28;93004;-24
2021/07/22 08:27:45;;;;;;;15.20;10.55;;;25.20;60.20;;;;;;4930777;28;92204;-24
2021/07/22 08:30:11;;;;;;;17.15;10.98;;;25.20;60.20;;;;;;4931316;28;91697;-23
2021/07/22 08:32:37;;;;;;;15.43;11.20;;;25.20;60.20;;;;;;4925494;28;93412;-25
2021/07/22 08:35:03;;;;;;;11.93;9.93;;;25.20;60.30;;;;;;4930351;28;93416;-24
2021/07/22 08:37:29;;;;;;;12.75;10.90;;;25.10;60.20;;;;;;4931357;28;93185;-24
2021/07/22 08:40:00;;;;;;;17.10;10.63;;;25.20;60.40;;;;;;4920878;28;93289;-23
2021/07/22 08:42:27;;;;;;;13.77;10.25;;;25.20;60.40;;;;;;4931041;28;93305;-23
2021/07/22 08:44:54;;;;;;;20.60;11.15;;;25.10;60.30;;;;;;4930272;28;94020;-25
2021/07/22 08:47:20;;;;;;;13.38;10.23;;;25.10;60.30;;;;;;4930931;28;92177;-20
2021/07/22 08:49:45;;;;;;;14.95;11.15;;;25.10;60.30;;;;;;4930917;28;92362;-22
2021/07/22 08:52:12;;;;;;;13.63;10.63;;;25.10;60.30;;;;;;4930114;28;93288;-24
2021/07/22 08:54:39;;;;;;;18.42;10.68;;;25.20;60.30;;;;;;4916259;28;93041;-23
2021/07/22 08:57:10;;;;;;;16.95;10.65;;;25.10;60.30;;;;;;4944305;28;92882;-25
2021/07/22 08:59:36;;;;;;;14.48;10.57;;;25.10;60.60;;;;;;4930177;28;93186;-25
2021/07/22 09:02:02;;;;;;;20.98;11.60;;;25.10;60.70;;;;;;4929292;28;93802;-20
2021/07/22 09:04:28;;;;;;;18.80;11.25;;;25.10;60.80;;;;;;4928405;28;95497;-24
2021/07/22 09:06:57;;;;;;;14.60;11.70;;;25.20;60.80;;;;;;4924395;28;92956;-24
2021/07/22 09:09:23;;;;;;;17.50;11.40;;;25.10;61.10;;;;;;4929621;28;92690;-23
2021/07/22 09:11:59;;;;;;;21.88;11.38;;;25.10;61.30;;;;;;4928698;28;95176;-24
2021/07/22 09:14:27;;;;;;;19.05;11.20;;;25.10;61.40;;;;;;4929038;28;94283;-21
2021/07/22 09:16:53;;;;;;;16.15;11.25;;;25.10;61.40;;;;;;4927861;28;93372;-25
2021/07/22 09:19:34;;;;;;;18.67;11.52;;;25.10;62.00;;;;;;4930438;28;92200;-21
2021/07/22 09:22:00;;;;;;;21.27;12.18;;;25.10;62.40;;;;;;4941362;28;94854;-23
2021/07/22 09:24:26;;;;;;;21.73;11.70;;;25.10;62.40;;;;;;4928918;28;92717;-24
2021/07/22 09:26:52;;;;;;;28.15;16.48;;;25.20;62.90;;;;;;4926936;28;93925;-20
2021/07/22 09:29:19;;;;;;;26.65;16.15;;;25.20;63.30;;;;;;4928073;28;92275;-22
2021/07/22 09:31:46;;;;;;;25.08;15.32;;;25.20;63.50;;;;;;4927419;28;93293;-24
2021/07/22 09:34:16;;;;;;;24.48;15.48;;;25.10;63.60;;;;;;4928751;28;92860;-25
2021/07/22 09:36:42;;;;;;;22.77;14.45;;;25.20;63.50;;;;;;4929577;28;92642;-26
2021/07/22 09:39:22;;;;;;;21.30;14.25;;;25.20;63.70;;;;;;4926678;28;92265;-24
2021/07/22 09:42:07;;;;;;;21.98;14.60;;;25.20;63.50;;;;;;4928542;28;93309;-24
2021/07/22 09:44:39;;;;;;;23.92;14.60;;;25.20;63.60;;;;;;4928953;28;93997;-22
2021/07/22 09:47:07;;;;;;;23.17;14.85;;;25.20;64.50;;;;;;4928904;28;93235;-23
2021/07/22 09:49:39;;;;;;;24.60;14.75;;;25.20;65.30;;;;;;4928632;28;92451;-25
2021/07/22 09:52:23;;;;;;;22.17;15.57;;;25.20;65.30;;;;;;4927529;28;95342;-24
2021/07/22 09:54:48;;;;;;;28.15;14.93;;;25.20;65.00;;;;;;4928407;28;93791;-22
2021/07/22 09:57:22;;;;;;;24.45;15.10;;;25.20;65.30;;;;;;4928713;28;92972;-26
2021/07/22 09:59:50;;;;;;;27.73;15.20;;;25.20;65.50;;;;;;4925556;28;92948;-23
2021/07/22 10:02:21;;;;;;;25.42;14.60;;;25.20;65.80;;;;;;4926498;28;93526;-24
2021/07/22 10:05:06;;;;;;;23.23;14.93;;;25.20;66.40;;;;;;4926981;28;92652;-18
2021/07/22 10:07:35;;;;;;;23.02;14.02;;;25.20;66.80;;;;;;4928227;28;92896;-23
2021/07/22 10:10:02;;;;;;;21.75;14.52;;;25.20;66.80;;;;;;4928036;28;92772;-19
2021/07/22 10:12:29;;;;;;;22.00;14.32;;;25.20;66.90;;;;;;4927931;28;93211;-19
2021/07/22 10:14:57;;;;;;;21.65;13.88;;;25.20;66.80;;;;;;4927874;28;93732;-20
2021/07/22 10:17:41;;;;;;;24.67;14.32;;;25.20;66.90;;;;;;4927526;28;93831;-21
2021/07/22 10:20:08;;;;;;;17.17;13.57;;;25.20;66.80;;;;;;4927630;28;92510;-23
2021/07/22 10:22:37;;;;;;;24.90;14.52;;;25.20;67.00;;;;;;4925030;28;94735;-23
2021/07/22 10:25:05;;;;;;;18.50;13.32;;;25.20;67.10;;;;;;4924821;28;95085;-28
2021/07/22 10:27:32;;;;;;;26.80;14.68;;;25.20;67.00;;;;;;4927785;28;92239;-22
2021/07/22 10:30:04;;;;;;;20.38;13.63;;;25.30;67.20;;;;;;4927644;28;92799;-22
2021/07/22 10:32:31;;;;;;;20.67;13.97;;;25.30;67.40;;;;;;4925151;28;93255;-23
2021/07/22 10:34:58;;;;;;;21.55;13.82;;;25.30;67.50;;;;;;4921887;28;94039;-25
2021/07/22 10:37:24;;;;;;;21.20;13.80;;;25.30;67.60;;;;;;4923222;28;92998;-25
2021/07/22 10:40:09;;;;;;;23.17;13.80;;;25.30;68.10;;;;;;4926819;28;92710;-24
2021/07/22 10:42:45;;;;;;;27.75;14.40;;;25.30;68.10;;;;;;4923685;28;93544;-22
2021/07/22 10:45:17;;;;;;;23.38;13.70;;;25.30;67.80;;;;;;4925014;28;93386;-21
2021/07/22 10:48:05;;;;;;;22.73;13.23;;;25.40;67.60;;;;;;4925903;28;93211;-23
2021/07/22 10:50:42;;;;;;;22.58;13.20;;;25.40;67.10;;;;;;4926675;28;93241;-27
2021/07/22 10:53:07;;;;;;;17.33;13.18;;;25.50;66.90;;;;;;4927022;28;94003;-24
2021/07/22 10:55:42;;;;;;;21.15;13.90;;;25.50;66.80;;;;;;4923023;28;93208;-23
2021/07/22 10:58:29;;;;;;;25.05;13.13;;;25.60;66.80;;;;;;4926551;28;92714;-25
2021/07/22 11:01:02;;;;;;;20.13;13.57;;;25.60;66.70;;;;;;4926573;28;92185;-21
2021/07/22 11:03:38;;;;;;;19.13;13.25;;;25.60;66.60;;;;;;4926035;28;93912;-23
2021/07/22 11:06:13;;;;;;;26.08;14.25;;;25.60;66.50;;;;;;4923191;28;94383;-24
2021/07/22 11:08:41;;;;;;;19.45;12.43;;;25.70;66.50;;;;;;4926728;28;93797;-26
2021/07/22 11:11:13;;;;;;;18.25;13.00;;;25.70;66.50;;;;;;4926477;28;93082;-25
2021/07/22 11:13:46;;;;;;;18.80;13.43;;;25.80;66.30;;;;;;4925525;28;92697;-21
2021/07/22 11:16:31;;;;;;;17.80;12.23;;;25.80;66.10;;;;;;4925931;28;94329;-22
2021/07/22 11:19:17;;;;;;;18.05;12.68;;;25.80;65.70;;;;;;4926995;28;92357;-23
2021/07/22 11:21:50;;;;;;;19.25;11.95;;;25.80;65.70;;;;;;4922809;28;93192;-24
2021/07/22 11:24:23;;;;;;;19.52;11.93;;;25.80;65.70;;;;;;4914155;28;94816;-26
2021/07/22 11:26:51;;;;;;;15.33;11.70;;;25.90;65.80;;;;;;4921879;28;92009;-24
2021/07/22 11:29:17;;;;;;;19.13;10.98;;;25.90;65.70;;;;;;4927557;28;92731;-25
2021/07/22 11:31:45;;;;;;;21.05;12.95;;;25.90;65.70;;;;;;4918687;28;93125;-27
2021/07/22 11:34:15;;;;;;;16.33;11.50;;;25.90;65.70;;;;;;4907109;28;95674;-24
2021/07/22 11:36:41;;;;;;;17.55;11.90;;;25.90;65.60;;;;;;4940469;28;93529;-22
2021/07/22 11:39:07;;;;;;;16.85;11.02;;;25.90;66.00;;;;;;4922807;28;93355;-25
2021/07/22 11:41:33;;;;;;;19.13;12.90;;;26.00;65.40;;;;;;4908967;28;93045;-24
2021/07/22 11:44:03;;;;;;;19.08;11.90;;;26.00;65.30;;;;;;4926856;28;93518;-21
2021/07/22 11:46:42;;;;;;;19.10;11.77;;;26.00;65.30;;;;;;4918987;28;93637;-21
2021/07/22 11:49:16;;;;;;;17.63;11.90;;;26.00;65.20;;;;;;4924851;28;93105;-26
2021/07/22 11:51:45;;;;;;;19.20;12.57;;;26.10;65.10;;;;;;4925979;28;92109;-25
2021/07/22 11:54:13;;;;;;;22.27;11.98;;;26.10;65.30;;;;;;4916560;28;94620;-23
2021/07/22 11:56:39;;;;;;;18.80;11.82;;;26.10;65.40;;;;;;4920521;28;92798;-22
2021/07/22 11:59:09;;;;;;;22.25;11.32;;;26.10;64.80;;;;;;4919749;28;93939;-21
2021/07/22 12:01:49;;;;;;;22.98;11.60;;;26.10;62.10;;;;;;4925940;28;92599;-23
2021/07/22 12:04:32;;;;;;;28.65;14.05;;;26.10;60.60;;;;;;4924841;28;93596;-23
2021/07/22 12:06:59;;;;;;;40.22;16.13;;;26.10;59.40;;;;;;4923140;28;92313;-23
2021/07/22 12:09:25;;;;;;;39.17;17.50;;;26.00;58.40;;;;;;4925913;28;92224;-23
2021/07/22 12:12:00;;;;;;;34.60;15.55;;;25.90;57.60;;;;;;4913268;28;92807;-24
2021/07/22 12:14:35;;;;;;;38.05;17.33;;;25.90;56.80;;;;;;4925994;28;94842;-23
2021/07/22 12:17:06;;;;;;;40.90;15.70;;;25.80;56.30;;;;;;4915649;28;93942;-23
2021/07/22 12:19:37;;;;;;;37.28;15.52;;;25.70;55.70;;;;;;4926223;28;92593;-24
2021/07/22 12:22:21;;;;;;;40.30;16.50;;;25.60;55.20;;;;;;4926755;28;93908;-24
2021/07/22 12:24:49;;;;;;;36.17;15.63;;;25.60;54.70;;;;;;4925189;28;94272;-24
2021/07/22 12:27:32;;;;;;;36.88;16.48;;;25.60;55.40;;;;;;4927846;28;94807;-23
2021/07/22 12:29:59;;;;;;;32.90;15.65;;;25.60;57.10;;;;;;4927450;28;92587;-24
2021/07/22 12:32:28;;;;;;;31.27;14.65;;;25.60;58.10;;;;;;4927595;28;93517;-25
2021/07/22 12:34:53;;;;;;;26.90;14.98;;;25.70;59.00;;;;;;4928798;28;94512;-27
2021/07/22 12:37:19;;;;;;;34.63;15.65;;;25.70;59.80;;;;;;4943833;28;92325;-23